createdAt,value
2019-06-07T00:00:51.062Z,16.50
2019-06-07T00:01:51.046Z,16.52
2019-06-07T00:02:51.047Z,16.49
2019-06-07T00:03:51.042Z,16.48
2019-06-07T00:04:51.014Z,16.42
2019-06-07T00:05:51.006Z,16.48
2019-06-07T00:06:50.994Z,16.34
2019-06-07T00:07:50.992Z,16.42
2019-06-07T00:08:50.973Z,16.38
2019-06-07T00:09:50.965Z,16.41
2019-06-07T00:10:50.949Z,16.44
2019-06-07T00:11:50.939Z,16.38
2019-06-07T00:12:50.938Z,16.40
2019-06-07T00:13:50.919Z,16.40
2019-06-07T00:14:50.908Z,16.44
2019-06-07T00:15:50.894Z,16.44
2019-06-07T00:16:50.901Z,16.37
2019-06-07T00:17:50.915Z,16.34
2019-06-07T00:18:50.862Z,16.40
2019-06-07T00:19:50.866Z,16.41
2019-06-07T00:20:50.842Z,16.41
2019-06-07T00:22:15.483Z,16.38
2019-06-07T00:22:51.827Z,16.40
2019-06-07T00:23:50.810Z,16.33
2019-06-07T00:24:50.801Z,16.35
2019-06-07T00:25:50.798Z,16.31
2019-06-07T00:26:58.474Z,16.37
2019-06-07T00:27:51.801Z,16.33
2019-06-07T00:28:50.753Z,16.35
2019-06-07T00:29:50.765Z,16.33
2019-06-07T00:30:52.397Z,16.33
2019-06-07T00:31:50.720Z,16.33
2019-06-07T00:32:51.013Z,16.27
2019-06-07T00:33:50.706Z,16.31
2019-06-07T00:34:50.691Z,16.37
2019-06-07T00:35:50.676Z,16.33
2019-06-07T00:36:50.665Z,16.33
2019-06-07T00:37:50.655Z,16.37
2019-06-07T00:38:50.651Z,16.35
2019-06-07T00:40:12.688Z,16.50
2019-06-07T00:40:51.621Z,16.42
2019-06-07T00:41:50.610Z,16.42
2019-06-07T00:42:50.608Z,16.38
2019-06-07T00:43:50.597Z,16.48
2019-06-07T00:44:50.579Z,16.35
2019-06-07T00:45:50.565Z,16.35
2019-06-07T00:46:50.564Z,16.30
2019-06-07T00:47:50.550Z,16.38
2019-06-07T00:48:50.543Z,16.41
2019-06-07T00:49:50.523Z,16.40
2019-06-07T00:50:50.523Z,16.42
2019-06-07T00:51:51.916Z,16.38
2019-06-07T00:53:51.496Z,16.31
2019-06-07T00:54:50.467Z,16.26
2019-06-07T00:55:50.456Z,16.34
2019-06-07T00:56:50.447Z,16.22
2019-06-07T00:57:50.435Z,16.30
2019-06-07T00:59:10.399Z,16.27
2019-06-07T00:59:51.412Z,16.18
2019-06-07T01:00:50.404Z,16.25
2019-06-07T01:01:50.433Z,16.18
2019-06-07T01:02:50.380Z,16.23
2019-06-07T01:03:50.395Z,16.26
2019-06-07T01:04:50.360Z,16.20
2019-06-07T01:05:50.346Z,16.30
2019-06-07T01:06:50.337Z,16.30
2019-06-07T01:07:50.330Z,16.31
2019-06-07T01:08:50.322Z,16.15
2019-06-07T01:09:50.309Z,16.20
2019-06-07T01:10:54.314Z,16.20
2019-06-07T01:11:50.305Z,16.18
2019-06-07T01:12:50.273Z,16.23
2019-06-07T01:13:50.270Z,16.22
2019-06-07T01:14:50.251Z,16.20
2019-06-07T01:15:50.238Z,16.15
2019-06-07T01:16:57.590Z,16.16
2019-06-07T01:18:32.951Z,16.20
2019-06-07T01:18:51.510Z,16.31
2019-06-07T01:19:50.195Z,16.26
2019-06-07T01:20:50.184Z,16.27
2019-06-07T01:21:50.172Z,16.26
2019-06-07T01:22:50.163Z,16.37
2019-06-07T01:24:11.958Z,16.23
2019-06-07T01:24:51.160Z,16.22
2019-06-07T01:25:50.130Z,16.20
2019-06-07T01:26:50.118Z,16.26
2019-06-07T01:27:50.111Z,16.23
2019-06-07T01:28:50.112Z,16.27
2019-06-07T01:29:50.087Z,16.26
2019-06-07T01:30:50.098Z,16.22
2019-06-07T01:31:50.063Z,16.25
2019-06-07T01:32:50.055Z,16.18
2019-06-07T01:33:51.351Z,16.31
2019-06-07T01:34:50.032Z,16.20
2019-06-07T01:35:50.019Z,16.22
2019-06-07T01:36:50.009Z,16.30
2019-06-07T01:37:50.017Z,16.27
2019-06-07T01:38:49.991Z,16.26
2019-06-07T01:39:49.988Z,16.34
2019-06-07T01:40:49.968Z,16.33
2019-06-07T01:41:49.956Z,16.30
2019-06-07T01:42:49.953Z,16.33
2019-06-07T01:43:49.934Z,16.31
2019-06-07T01:44:49.936Z,16.22
2019-06-07T01:45:49.914Z,16.16
2019-06-07T01:46:49.901Z,16.20
2019-06-07T01:47:49.897Z,16.23
2019-06-07T01:48:50.075Z,16.25
2019-06-07T01:49:49.878Z,16.14
2019-06-07T01:50:49.860Z,16.23
2019-06-07T01:51:49.855Z,16.23
2019-06-07T01:52:49.837Z,16.12
2019-06-07T01:53:49.826Z,16.11
2019-06-07T01:54:58.158Z,16.07
2019-06-07T01:55:50.870Z,16.01
2019-06-07T01:56:49.797Z,15.97
2019-06-07T01:57:49.784Z,15.97
2019-06-07T01:58:49.772Z,15.92
2019-06-07T01:59:49.769Z,15.93
2019-06-07T02:00:49.751Z,15.96
2019-06-07T02:01:49.747Z,15.94
2019-06-07T02:02:49.731Z,15.89
2019-06-07T02:03:49.719Z,15.94
2019-06-07T02:04:49.716Z,15.97
2019-06-07T02:05:49.697Z,15.97
2019-06-07T02:06:49.686Z,15.94
2019-06-07T02:07:49.676Z,15.93
2019-06-07T02:08:49.665Z,15.92
2019-06-07T02:09:49.662Z,15.94
2019-06-07T02:10:49.642Z,15.82
2019-06-07T02:11:49.632Z,15.92
2019-06-07T02:12:49.621Z,15.92
2019-06-07T02:13:49.610Z,15.92
2019-06-07T02:14:49.608Z,15.92
2019-06-07T02:15:49.588Z,15.92
2019-06-07T02:16:49.578Z,15.93
2019-06-07T02:17:49.569Z,15.96
2019-06-07T02:19:01.560Z,15.92
2019-06-07T02:19:50.558Z,15.84
2019-06-07T02:20:49.539Z,15.85
2019-06-07T02:21:49.523Z,15.82
2019-06-07T02:22:49.513Z,15.78
2019-06-07T02:23:49.503Z,15.70
2019-06-07T02:25:34.016Z,15.70
2019-06-07T02:25:50.850Z,15.70
2019-06-07T02:26:49.471Z,15.70
2019-06-07T02:27:49.458Z,15.67
2019-06-07T02:28:49.448Z,15.66
2019-06-07T02:29:49.447Z,15.66
2019-06-07T02:30:59.664Z,15.57
2019-06-07T02:31:50.416Z,15.59
2019-06-07T02:32:49.407Z,15.57
2019-06-07T02:33:49.393Z,15.51
2019-06-07T02:34:49.392Z,15.42
2019-06-07T02:35:49.432Z,15.42
2019-06-07T02:36:49.361Z,15.43
2019-06-07T02:37:49.354Z,15.42
2019-06-07T02:38:49.340Z,15.41
2019-06-07T02:39:49.337Z,15.31
2019-06-07T02:40:49.320Z,15.33
2019-06-07T02:41:49.306Z,15.26
2019-06-07T02:42:49.297Z,15.38
2019-06-07T02:43:49.290Z,15.31
2019-06-07T02:44:49.315Z,15.36
2019-06-07T02:45:49.265Z,15.31
2019-06-07T02:46:50.010Z,15.28
2019-06-07T02:47:49.245Z,15.28
2019-06-07T02:48:49.230Z,15.31
2019-06-07T02:49:49.223Z,15.23
2019-06-07T02:50:49.217Z,15.35
2019-06-07T02:51:49.197Z,15.27
2019-06-07T02:52:49.251Z,15.31
2019-06-07T02:53:49.176Z,15.24
2019-06-07T02:54:49.166Z,15.26
2019-06-07T02:56:34.022Z,15.24
2019-06-07T02:56:57.861Z,15.24
2019-06-07T02:57:50.133Z,15.26
2019-06-07T02:58:49.122Z,15.19
2019-06-07T03:00:06.747Z,15.20
2019-06-07T03:01:08.868Z,15.21
2019-06-07T03:01:50.089Z,15.20
2019-06-07T03:02:49.076Z,15.17
2019-06-07T03:03:49.067Z,15.06
2019-06-07T03:04:49.058Z,15.08
2019-06-07T03:05:49.051Z,15.05
2019-06-07T03:06:49.040Z,15.06
2019-06-07T03:07:49.024Z,15.03
2019-06-07T03:08:49.011Z,15.11
2019-06-07T03:09:49.000Z,15.06
2019-06-07T03:10:49.003Z,15.11
2019-06-07T03:11:48.979Z,15.08
2019-06-07T03:12:48.969Z,15.06
2019-06-07T03:13:48.963Z,15.09
2019-06-07T03:14:48.945Z,15.05
2019-06-07T03:15:50.353Z,15.05
2019-06-07T03:16:48.923Z,15.08
2019-06-07T03:17:48.915Z,15.05
2019-06-07T03:18:48.901Z,15.03
2019-06-07T03:19:48.890Z,15.08
2019-06-07T03:21:04.680Z,15.03
2019-06-07T03:21:49.873Z,15.05
2019-06-07T03:22:48.861Z,14.95
2019-06-07T03:23:48.857Z,14.94
2019-06-07T03:24:48.835Z,15.05
2019-06-07T03:25:48.834Z,15.08
2019-06-07T03:27:50.555Z,15.08
2019-06-07T03:28:48.794Z,15.06
2019-06-07T03:29:48.787Z,15.12
2019-06-07T03:31:01.485Z,15.19
2019-06-07T03:31:49.759Z,15.08
2019-06-07T03:32:48.923Z,15.19
2019-06-07T03:33:48.751Z,15.21
2019-06-07T03:34:48.726Z,15.31
2019-06-07T03:35:48.727Z,15.31
2019-06-07T03:36:48.703Z,15.38
2019-06-07T03:37:48.695Z,15.38
2019-06-07T03:38:48.681Z,15.56
2019-06-07T03:39:48.670Z,15.59
2019-06-07T03:40:48.687Z,15.64
2019-06-07T03:42:05.189Z,15.67
2019-06-07T03:42:49.637Z,15.67
2019-06-07T03:43:48.629Z,15.75
2019-06-07T03:44:48.615Z,15.79
2019-06-07T03:45:48.605Z,15.81
2019-06-07T03:46:48.630Z,15.94
2019-06-07T03:47:48.583Z,16.09
2019-06-07T03:48:48.591Z,16.45
2019-06-07T03:49:48.566Z,16.73
2019-06-07T03:51:03.870Z,16.77
2019-06-07T03:51:49.547Z,16.80
2019-06-07T03:52:48.529Z,16.77
2019-06-07T03:53:48.520Z,16.86
2019-06-07T03:54:48.507Z,16.98
2019-06-07T03:55:48.500Z,17.28
2019-06-07T03:56:48.494Z,17.63
2019-06-07T03:58:29.978Z,17.91
2019-06-07T03:58:50.562Z,18.10
2019-06-07T03:59:48.451Z,18.13
2019-06-07T04:00:48.442Z,17.79
2019-06-07T04:01:48.442Z,17.57
2019-06-07T04:02:48.422Z,17.50
2019-06-07T04:03:51.770Z,17.46
2019-06-07T04:04:48.397Z,17.40
2019-06-07T04:05:48.622Z,17.33
2019-06-07T04:06:48.382Z,17.28
2019-06-07T04:07:48.502Z,17.18
2019-06-07T04:08:48.354Z,17.46
2019-06-07T04:09:48.349Z,17.57
2019-06-07T04:10:59.601Z,17.62
2019-06-07T04:11:49.330Z,17.63
2019-06-07T04:12:48.310Z,18.07
2019-06-07T04:13:48.306Z,18.42
2019-06-07T04:14:48.287Z,18.25
2019-06-07T04:15:48.432Z,17.97
2019-06-07T04:16:48.276Z,17.66
2019-06-07T04:18:01.526Z,17.53
2019-06-07T04:18:49.242Z,17.40
2019-06-07T04:19:48.234Z,17.22
2019-06-07T04:20:48.223Z,17.25
2019-06-07T04:21:48.262Z,17.17
2019-06-07T04:22:48.203Z,16.98
2019-06-07T04:23:48.190Z,16.96
2019-06-07T04:24:48.178Z,16.98
2019-06-07T04:25:48.169Z,16.86
2019-06-07T04:26:48.164Z,16.90
2019-06-07T04:27:48.148Z,16.89
2019-06-07T04:29:31.485Z,16.86
2019-06-07T04:30:06.543Z,16.86
2019-06-07T04:30:49.111Z,17.04
2019-06-07T04:31:48.110Z,17.79
2019-06-07T04:32:48.095Z,18.90
2019-06-07T04:33:48.082Z,19.72
2019-06-07T04:34:48.141Z,20.43
2019-06-07T04:35:48.058Z,20.87
2019-06-07T04:36:58.523Z,20.95
2019-06-07T04:37:49.035Z,21.42
2019-06-07T04:38:48.027Z,21.57
2019-06-07T04:39:48.017Z,21.50
2019-06-07T04:40:48.005Z,21.75
2019-06-07T04:41:48.004Z,22.13
2019-06-07T04:42:47.982Z,22.68
2019-06-07T04:43:47.972Z,23.09
2019-06-07T04:44:48.033Z,23.14
2019-06-07T04:45:51.220Z,23.32
2019-06-07T04:46:47.951Z,23.46
2019-06-07T04:47:47.931Z,23.70
2019-06-07T04:48:47.921Z,23.95
2019-06-07T04:49:47.910Z,24.01
2019-06-07T04:50:47.897Z,24.29
2019-06-07T04:51:47.901Z,24.39
2019-06-07T04:52:47.912Z,23.90
2019-06-07T04:53:47.867Z,23.38
2019-06-07T04:54:47.858Z,23.57
2019-06-07T04:55:47.848Z,23.70
2019-06-07T04:56:47.867Z,23.87
2019-06-07T04:57:47.844Z,23.85
2019-06-07T04:58:47.814Z,24.17
2019-06-07T05:00:12.063Z,24.71
2019-06-07T05:00:53.998Z,24.82
2019-06-07T05:01:48.810Z,25.06
2019-06-07T05:02:47.774Z,25.32
2019-06-07T05:03:47.763Z,24.61
2019-06-07T05:04:47.751Z,23.55
2019-06-07T05:05:47.741Z,23.89
2019-06-07T05:06:47.732Z,24.39
2019-06-07T05:07:47.737Z,24.54
2019-06-07T05:08:47.709Z,24.80
2019-06-07T05:09:47.700Z,25.27
2019-06-07T05:10:47.689Z,25.44
2019-06-07T05:11:47.679Z,25.54
2019-06-07T05:12:47.677Z,25.61
2019-06-07T05:13:47.664Z,25.89
2019-06-07T05:14:47.650Z,26.02
2019-06-07T05:15:47.640Z,25.94
2019-06-07T05:16:47.629Z,26.28
2019-06-07T05:17:47.626Z,25.80
2019-06-07T05:18:47.611Z,26.04
2019-06-07T05:19:47.636Z,26.44
2019-06-07T05:20:47.589Z,26.73
2019-06-07T05:22:02.663Z,27.02
2019-06-07T05:22:48.579Z,27.09
2019-06-07T05:24:09.493Z,27.23
2019-06-07T05:24:48.548Z,27.23
2019-06-07T05:25:47.542Z,27.42
2019-06-07T05:26:47.529Z,27.16
2019-06-07T05:27:47.539Z,26.89
2019-06-07T05:28:47.510Z,26.83
2019-06-07T05:30:08.819Z,26.95
2019-06-07T05:31:03.817Z,27.23
2019-06-07T05:31:48.480Z,27.53
2019-06-07T05:32:47.481Z,27.67
2019-06-07T05:33:47.464Z,27.82
2019-06-07T05:34:47.677Z,27.89
2019-06-07T05:35:47.443Z,27.92
2019-06-07T05:37:08.459Z,27.95
2019-06-07T05:37:48.467Z,27.86
2019-06-07T05:38:47.413Z,27.92
2019-06-07T05:39:47.406Z,27.92
2019-06-07T05:40:48.817Z,27.91
2019-06-07T05:41:47.386Z,28.16
2019-06-07T05:42:47.384Z,28.33
2019-06-07T05:44:00.229Z,28.32
2019-06-07T05:44:48.359Z,28.33
2019-06-07T05:45:47.348Z,28.68
2019-06-07T05:46:47.683Z,28.78
2019-06-07T05:47:51.083Z,28.85
2019-06-07T05:48:47.320Z,28.88
2019-06-07T05:49:47.566Z,29.01
2019-06-07T05:50:56.003Z,28.73
2019-06-07T05:51:48.292Z,28.87
2019-06-07T05:52:47.737Z,28.53
2019-06-07T05:53:47.274Z,28.58
2019-06-07T05:54:47.264Z,28.65
2019-06-07T05:55:47.758Z,28.53
2019-06-07T05:56:47.248Z,28.38
2019-06-07T05:57:50.976Z,28.33
2019-06-07T05:58:47.236Z,28.43
2019-06-07T05:59:47.800Z,28.56
2019-06-07T06:00:47.859Z,28.85
2019-06-07T06:01:58.982Z,28.82
2019-06-07T06:03:04.324Z,28.47
2019-06-07T06:03:48.574Z,28.40
2019-06-07T06:04:49.286Z,28.32
2019-06-07T06:05:54.407Z,28.33
2019-06-07T06:06:48.161Z,28.32
2019-06-07T06:07:50.437Z,28.50
2019-06-07T06:08:47.947Z,28.60
2019-06-07T06:09:47.653Z,28.48
2019-06-07T06:10:48.811Z,28.41
2019-06-07T06:11:59.674Z,28.36
2019-06-07T06:12:51.641Z,28.21
2019-06-07T06:14:05.940Z,27.77
2019-06-07T06:14:48.088Z,27.59
2019-06-07T06:16:00.371Z,27.46
2019-06-07T06:16:50.026Z,27.48
2019-06-07T06:17:50.027Z,27.70
2019-06-07T06:18:49.212Z,27.94
2019-06-07T06:19:50.369Z,27.84
2019-06-07T06:21:09.723Z,28.06
2019-06-07T06:21:48.709Z,28.40
2019-06-07T06:22:48.760Z,28.72
2019-06-07T06:23:50.734Z,28.97
2019-06-07T06:25:22.679Z,29.10
2019-06-07T06:25:55.914Z,29.18
2019-06-07T06:26:52.165Z,29.04
2019-06-07T06:28:11.799Z,29.06
2019-06-07T06:28:49.739Z,29.11
2019-06-07T06:29:50.114Z,29.15
2019-06-07T06:30:47.997Z,29.18
2019-06-07T06:32:36.751Z,29.37
2019-06-07T06:32:56.863Z,29.44
2019-06-07T06:33:49.910Z,29.33
2019-06-07T06:34:49.412Z,29.55
2019-06-07T06:35:49.413Z,29.70
2019-06-07T06:36:50.110Z,29.77
2019-06-07T06:37:52.629Z,29.65
2019-06-07T06:38:49.723Z,29.20
2019-06-07T06:39:49.969Z,28.90
2019-06-07T06:40:49.663Z,28.66
2019-06-07T06:41:58.602Z,28.19
2019-06-07T06:42:50.103Z,28.07
2019-06-07T06:43:50.335Z,28.17
2019-06-07T06:44:53.659Z,27.92
2019-06-07T06:45:50.486Z,27.95
2019-06-07T06:46:55.926Z,28.03
2019-06-07T06:47:50.544Z,28.13
2019-06-07T06:48:53.795Z,28.10
2019-06-07T06:49:49.990Z,28.22
2019-06-07T06:50:52.286Z,28.33
2019-06-07T06:51:47.836Z,28.29
2019-06-07T06:52:50.425Z,28.21
2019-06-07T06:53:49.863Z,28.31
2019-06-07T06:54:58.977Z,28.40
2019-06-07T06:55:49.619Z,28.60
2019-06-07T06:56:47.584Z,28.54
2019-06-07T06:57:48.341Z,28.58
2019-06-07T06:59:30.742Z,28.31
2019-06-07T06:59:50.528Z,28.17
2019-06-07T07:00:58.767Z,28.04
2019-06-07T07:01:50.570Z,27.54
2019-06-07T07:03:39.313Z,26.95
2019-06-07T07:04:07.260Z,26.57
2019-06-07T07:04:48.663Z,26.69
2019-06-07T07:05:50.045Z,26.79
2019-06-07T07:06:48.052Z,26.69
2019-06-07T07:07:49.975Z,26.69
2019-06-07T07:08:50.689Z,26.50
2019-06-07T07:09:49.416Z,26.46
2019-06-07T07:10:51.154Z,26.17
2019-06-07T07:12:00.740Z,26.15
2019-06-07T07:12:49.782Z,26.06
2019-06-07T07:13:49.927Z,25.74
2019-06-07T07:14:49.739Z,25.75
2019-06-07T07:15:50.155Z,25.62
2019-06-07T07:16:50.036Z,25.44
2019-06-07T07:17:58.919Z,25.62
2019-06-07T07:18:51.101Z,25.72
2019-06-07T07:19:49.860Z,25.69
2019-06-07T07:20:48.332Z,25.65
2019-06-07T07:21:50.623Z,25.57
2019-06-07T07:22:48.551Z,25.39
2019-06-07T07:24:14.672Z,25.39
2019-06-07T07:24:49.741Z,25.49
2019-06-07T07:25:52.751Z,25.47
2019-06-07T07:26:50.058Z,25.53
2019-06-07T07:27:47.150Z,25.65
2019-06-07T07:28:50.788Z,25.84
2019-06-07T07:29:52.555Z,25.74
2019-06-07T07:30:48.118Z,25.54
2019-06-07T07:31:50.308Z,25.54
2019-06-07T07:32:48.985Z,25.50
2019-06-07T07:34:50.077Z,25.43
2019-06-07T07:36:10.853Z,25.57
2019-06-07T07:36:50.222Z,25.67
2019-06-07T07:37:53.514Z,25.64
2019-06-07T07:38:51.852Z,25.67
2019-06-07T07:39:50.481Z,25.74
2019-06-07T07:41:02.011Z,25.71
2019-06-07T07:42:12.319Z,25.84
2019-06-07T07:42:49.636Z,25.83
2019-06-07T07:43:52.909Z,25.82
2019-06-07T07:44:49.895Z,25.93
2019-06-07T07:45:53.093Z,25.89
2019-06-07T07:46:49.170Z,25.71
2019-06-07T07:48:03.494Z,25.42
2019-06-07T07:48:48.533Z,25.35
2019-06-07T07:49:48.365Z,25.42
2019-06-07T07:50:49.833Z,25.53
2019-06-07T07:51:48.880Z,25.43
2019-06-07T07:52:49.068Z,25.44
2019-06-07T07:53:53.199Z,25.15
2019-06-07T07:54:49.160Z,25.02
2019-06-07T07:55:51.544Z,25.02
2019-06-07T07:56:48.953Z,24.97
2019-06-07T07:57:48.690Z,24.87
2019-06-07T07:58:50.029Z,24.77
2019-06-07T08:00:02.178Z,24.85
2019-06-07T08:00:57.660Z,24.90
2019-06-07T08:01:48.625Z,24.91
2019-06-07T08:02:48.834Z,24.98
2019-06-07T08:03:46.038Z,25.06
2019-06-07T08:05:17.705Z,25.16
2019-06-07T08:05:47.639Z,25.12
2019-06-07T08:06:46.646Z,25.20
2019-06-07T08:07:49.853Z,25.25
2019-06-07T08:08:46.927Z,25.27
2019-06-07T08:09:47.432Z,25.19
2019-06-07T08:10:51.367Z,25.06
2019-06-07T08:11:47.717Z,25.25
2019-06-07T08:13:07.259Z,25.34
2019-06-07T08:13:48.012Z,25.32
2019-06-07T08:14:47.712Z,25.32
2019-06-07T08:15:48.300Z,25.43
2019-06-07T08:16:47.061Z,25.27
2019-06-07T08:17:47.248Z,24.92
2019-06-07T08:18:45.823Z,24.73
2019-06-07T08:19:47.655Z,24.94
2019-06-07T08:21:04.641Z,24.98
2019-06-07T08:21:47.913Z,24.91
2019-06-07T08:22:45.780Z,24.94
2019-06-07T08:23:47.678Z,24.94
2019-06-07T08:24:45.759Z,25.00
2019-06-07T08:25:46.808Z,25.05
2019-06-07T08:27:08.028Z,25.07
2019-06-07T08:27:47.043Z,25.10
2019-06-07T08:28:45.717Z,25.38
2019-06-07T08:30:03.815Z,25.43
2019-06-07T08:30:50.622Z,25.38
2019-06-07T08:31:48.321Z,25.32
2019-06-07T08:32:45.675Z,25.13
2019-06-07T08:33:45.667Z,25.31
2019-06-07T08:34:45.664Z,25.30
2019-06-07T08:36:46.633Z,25.02
2019-06-07T08:38:48.291Z,24.92
2019-06-07T08:39:46.602Z,25.13
2019-06-07T08:40:45.609Z,25.31
2019-06-07T08:41:59.476Z,25.32
2019-06-07T08:43:04.529Z,25.32
2019-06-07T08:43:46.559Z,25.52
2019-06-07T08:44:45.556Z,25.54
2019-06-07T08:45:45.546Z,25.57
2019-06-07T08:46:45.531Z,25.57
2019-06-07T08:47:45.519Z,25.54
2019-06-07T08:48:45.509Z,25.62
2019-06-07T08:49:45.499Z,25.56
2019-06-07T08:50:45.495Z,25.59
2019-06-07T08:51:45.483Z,25.77
2019-06-07T08:52:45.466Z,25.89
2019-06-07T08:54:02.746Z,25.97
2019-06-07T08:54:46.443Z,25.93
2019-06-07T08:55:45.445Z,25.86
2019-06-07T08:56:45.428Z,25.89
2019-06-07T08:57:45.427Z,25.99
2019-06-07T08:58:45.404Z,26.20
2019-06-07T08:59:45.392Z,26.18
2019-06-07T09:00:47.527Z,25.83
2019-06-07T09:01:45.376Z,25.75
2019-06-07T09:02:45.364Z,25.77
2019-06-07T09:03:45.356Z,25.57
2019-06-07T09:04:45.340Z,25.38
2019-06-07T09:05:45.337Z,25.05
2019-06-07T09:07:46.309Z,25.24
2019-06-07T09:08:45.303Z,25.09
2019-06-07T09:09:45.289Z,25.20
2019-06-07T09:10:45.313Z,25.38
2019-06-07T09:11:45.265Z,25.20
2019-06-07T09:12:45.256Z,25.32
2019-06-07T09:13:45.244Z,25.46
2019-06-07T09:14:59.724Z,25.67
2019-06-07T09:15:46.251Z,25.72
2019-06-07T09:16:45.253Z,25.93
2019-06-07T09:18:30.435Z,26.08
2019-06-07T09:18:46.193Z,26.22
2019-06-07T09:19:45.185Z,26.39
2019-06-07T09:20:45.170Z,26.25
2019-06-07T09:21:45.166Z,25.98
2019-06-07T09:22:45.153Z,25.80
2019-06-07T09:23:45.138Z,25.75
2019-06-07T09:24:45.127Z,25.99
2019-06-07T09:25:57.070Z,26.05
2019-06-07T09:26:46.116Z,26.21
2019-06-07T09:27:45.096Z,26.24
2019-06-07T09:28:45.084Z,26.37
2019-06-07T09:29:45.079Z,26.31
2019-06-07T09:30:45.066Z,26.01
2019-06-07T09:31:53.581Z,25.93
2019-06-07T09:32:46.040Z,25.82
2019-06-07T09:33:45.032Z,25.79
2019-06-07T09:34:45.021Z,25.84
2019-06-07T09:35:45.014Z,25.74
2019-06-07T09:36:45.014Z,25.72
2019-06-07T09:38:45.980Z,26.18
2019-06-07T09:39:44.970Z,26.27
2019-06-07T09:40:44.958Z,26.27
2019-06-07T09:41:50.106Z,26.43
2019-06-07T09:42:45.936Z,26.32
2019-06-07T09:44:10.866Z,26.47
2019-06-07T09:44:45.915Z,26.46
2019-06-07T09:45:44.911Z,26.55
2019-06-07T09:46:44.909Z,26.12
2019-06-07T09:47:44.884Z,25.82
2019-06-07T09:49:10.615Z,25.75
2019-06-07T09:49:45.862Z,25.42
2019-06-07T09:50:44.852Z,25.43
2019-06-07T09:51:44.849Z,25.68
2019-06-07T09:52:57.926Z,25.97
2019-06-07T09:53:45.821Z,26.04
2019-06-07T09:55:45.797Z,26.42
2019-06-07T09:56:46.424Z,26.55
2019-06-07T09:57:44.776Z,26.72
2019-06-07T09:58:51.732Z,26.89
2019-06-07T09:59:46.793Z,26.99
2019-06-07T10:00:44.807Z,27.13
2019-06-07T10:01:44.744Z,27.20
2019-06-07T10:02:44.730Z,27.11
2019-06-07T10:03:44.713Z,27.11
2019-06-07T10:04:44.702Z,26.62
2019-06-07T10:05:44.691Z,25.94
2019-06-07T10:06:44.698Z,25.47
2019-06-07T10:07:59.986Z,25.44
2019-06-07T10:10:45.635Z,25.46
2019-06-07T10:11:44.638Z,25.47
2019-06-07T10:12:44.621Z,25.67
2019-06-07T10:13:44.610Z,25.82
2019-06-07T10:14:45.307Z,25.82
2019-06-07T10:15:44.586Z,25.77
2019-06-07T10:16:47.176Z,25.68
2019-06-07T10:17:44.565Z,25.74
2019-06-07T10:18:44.570Z,25.71
2019-06-07T10:19:44.598Z,25.75
2019-06-07T10:20:44.532Z,25.74
2019-06-07T10:21:44.520Z,25.71
2019-06-07T10:22:44.518Z,25.57
2019-06-07T10:23:44.500Z,25.50
2019-06-07T10:24:44.489Z,25.32
2019-06-07T10:25:44.479Z,25.24
2019-06-07T10:26:44.467Z,25.12
2019-06-07T10:27:44.465Z,25.02
2019-06-07T10:28:44.456Z,25.05
2019-06-07T10:29:44.441Z,25.07
2019-06-07T10:30:44.427Z,25.06
2019-06-07T10:31:44.491Z,25.10
2019-06-07T10:32:44.413Z,24.97
2019-06-07T10:33:44.396Z,24.91
2019-06-07T10:34:44.385Z,24.91
2019-06-07T10:35:44.373Z,24.98
2019-06-07T10:36:44.374Z,25.25
2019-06-07T10:37:44.360Z,25.09
2019-06-07T10:38:44.344Z,24.97
2019-06-07T10:39:48.618Z,25.15
2019-06-07T10:40:44.320Z,25.32
2019-06-07T10:41:44.313Z,25.59
2019-06-07T10:42:44.307Z,25.54
2019-06-07T10:43:44.293Z,25.54
2019-06-07T10:44:44.278Z,25.00
2019-06-07T10:45:44.274Z,24.92
2019-06-07T10:46:44.266Z,25.07
2019-06-07T10:47:44.257Z,25.20
2019-06-07T10:48:44.238Z,25.13
2019-06-07T10:49:44.256Z,25.01
2019-06-07T10:50:44.215Z,24.79
2019-06-07T10:51:44.204Z,24.35
2019-06-07T10:52:44.208Z,24.49
2019-06-07T10:53:44.185Z,24.39
2019-06-07T10:54:44.179Z,24.31
2019-06-07T10:55:44.164Z,24.59
2019-06-07T10:56:44.151Z,24.91
2019-06-07T10:57:44.149Z,25.10
2019-06-07T10:58:44.135Z,25.32
2019-06-07T10:59:44.124Z,25.56
2019-06-07T11:00:44.113Z,25.80
2019-06-07T11:01:44.100Z,26.09
2019-06-07T11:02:44.097Z,26.37
2019-06-07T11:03:44.078Z,26.68
2019-06-07T11:04:44.069Z,26.86
2019-06-07T11:05:44.056Z,26.94
2019-06-07T11:06:44.051Z,26.91
2019-06-07T11:07:44.045Z,26.96
2019-06-07T11:08:44.034Z,26.98
2019-06-07T11:09:44.049Z,27.06
2019-06-07T11:10:44.001Z,27.28
2019-06-07T11:11:43.991Z,27.04
2019-06-07T11:12:43.988Z,26.96
2019-06-07T11:13:43.984Z,26.76
2019-06-07T11:14:43.967Z,26.31
2019-06-07T11:15:44.006Z,26.02
2019-06-07T11:16:43.954Z,25.90
2019-06-07T11:17:43.941Z,25.93
2019-06-07T11:18:43.922Z,25.90
2019-06-07T11:19:43.916Z,25.97
2019-06-07T11:20:43.904Z,26.17
2019-06-07T11:21:43.885Z,26.27
2019-06-07T11:22:43.883Z,26.04
2019-06-07T11:23:43.868Z,25.91
2019-06-07T11:24:44.604Z,26.04
2019-06-07T11:25:43.843Z,26.31
2019-06-07T11:26:43.831Z,25.94
2019-06-07T11:27:43.884Z,25.62
2019-06-07T11:28:43.816Z,25.44
2019-06-07T11:29:43.797Z,25.44
2019-06-07T11:30:43.791Z,25.61
2019-06-07T11:31:47.278Z,25.74
2019-06-07T11:32:43.809Z,25.91
2019-06-07T11:33:43.795Z,25.89
2019-06-07T11:34:43.744Z,25.74
2019-06-07T11:35:43.735Z,25.72
2019-06-07T11:36:43.722Z,25.86
2019-06-07T11:37:43.711Z,26.05
2019-06-07T11:38:43.715Z,26.28
2019-06-07T11:39:43.696Z,26.49
2019-06-07T11:40:43.681Z,26.59
2019-06-07T11:41:43.668Z,26.37
2019-06-07T11:42:43.660Z,26.17
2019-06-07T11:43:43.654Z,25.84
2019-06-07T11:44:56.181Z,25.83
2019-06-07T11:45:44.626Z,25.89
2019-06-07T11:46:43.616Z,25.93
2019-06-07T11:47:43.605Z,26.08
2019-06-07T11:48:43.602Z,26.31
2019-06-07T11:49:43.582Z,26.39
2019-06-07T11:50:43.571Z,26.58
2019-06-07T11:51:43.572Z,26.74
2019-06-07T11:52:46.326Z,26.80
2019-06-07T11:53:43.548Z,26.81
2019-06-07T11:54:43.528Z,26.58
2019-06-07T11:55:43.520Z,26.04
2019-06-07T11:56:43.507Z,25.87
2019-06-07T11:57:43.500Z,25.93
2019-06-07T11:58:43.495Z,25.52
2019-06-07T11:59:43.480Z,25.38
2019-06-07T12:00:43.488Z,25.44
2019-06-07T12:01:43.455Z,25.61
2019-06-07T12:02:43.449Z,25.57
2019-06-07T12:03:43.484Z,25.57
2019-06-07T12:04:43.422Z,25.67
2019-06-07T12:05:43.413Z,25.80
2019-06-07T12:06:43.402Z,26.04
2019-06-07T12:07:43.389Z,26.36
2019-06-07T12:08:43.387Z,26.47
2019-06-07T12:09:56.029Z,26.67
2019-06-07T12:10:44.360Z,26.68
2019-06-07T12:11:43.347Z,26.73
2019-06-07T12:12:43.358Z,26.65
2019-06-07T12:13:43.338Z,26.52
2019-06-07T12:14:43.320Z,26.37
2019-06-07T12:15:43.307Z,26.36
2019-06-07T12:16:43.293Z,26.35
2019-06-07T12:17:43.282Z,26.17
2019-06-07T12:18:43.291Z,25.80
2019-06-07T12:19:43.262Z,25.59
2019-06-07T12:20:43.250Z,25.57
2019-06-07T12:21:43.253Z,25.82
2019-06-07T12:22:43.229Z,25.82
2019-06-07T12:23:43.228Z,26.04
2019-06-07T12:24:43.207Z,26.21
2019-06-07T12:25:43.196Z,26.25
2019-06-07T12:26:43.198Z,26.32
2019-06-07T12:27:43.186Z,26.37
2019-06-07T12:28:43.170Z,26.20
2019-06-07T12:29:43.155Z,25.97
2019-06-07T12:30:43.143Z,25.80
2019-06-07T12:31:43.134Z,25.62
2019-06-07T12:32:43.121Z,25.64
2019-06-07T12:33:43.120Z,25.59
2019-06-07T12:34:43.099Z,25.59
2019-06-07T12:35:43.090Z,25.44
2019-06-07T12:36:43.078Z,25.24
2019-06-07T12:37:44.893Z,25.31
2019-06-07T12:38:43.091Z,25.44
2019-06-07T12:39:43.045Z,25.56
2019-06-07T12:40:56.836Z,25.67
2019-06-07T12:41:44.026Z,25.79
2019-06-07T12:42:43.015Z,26.08
2019-06-07T12:43:43.004Z,26.08
2019-06-07T12:44:43.001Z,26.29
2019-06-07T12:45:45.539Z,26.54
2019-06-07T12:46:42.972Z,26.62
2019-06-07T12:47:42.968Z,26.72
2019-06-07T12:48:42.953Z,26.80
2019-06-07T12:49:42.959Z,26.84
2019-06-07T12:50:43.936Z,26.73
2019-06-07T12:51:42.921Z,26.61
2019-06-07T12:52:42.908Z,25.99
2019-06-07T12:53:42.900Z,25.77
2019-06-07T12:54:42.894Z,25.79
2019-06-07T12:55:42.876Z,25.86
2019-06-07T12:56:42.867Z,25.89
2019-06-07T12:57:42.853Z,25.89
2019-06-07T12:58:42.845Z,25.68
2019-06-07T12:59:42.841Z,25.39
2019-06-07T13:00:42.847Z,25.54
2019-06-07T13:01:42.815Z,25.75
2019-06-07T13:02:42.801Z,25.90